Time,TemperatureF,DewpointF,PressureIn,WindDirection,WindDirectionDegrees,WindSpeedMPH,WindSpeedGustMPH,Humidity,HourlyPrecipIn,Conditions,Clouds,dailyrainin,SoftwareType,DateUTC
2013-01-19 00:17:00,28.1,13.0,30.40,SSW,197,0.0,3.0,54,0.00,,,0.00,weatherlink.com 1.10,2013-01-19 05:17:00,
2013-01-19 00:32:00,28.3,13.0,30.40,South,180,1.0,4.0,53,0.00,,,0.00,weatherlink.com 1.10,2013-01-19 05:32:00,
2013-01-19 00:47:00,28.4,13.0,30.39,South,186,0.0,4.0,52,0.00,,,0.00,weatherlink.com 1.10,2013-01-19 05:47:00,
2013-01-19 01:02:00,28.3,12.0,30.39,South,172,2.0,4.0,50,0.00,,,0.00,weatherlink.com 1.10,2013-01-19 06:02:00,
2013-01-19 01:17:00,28.0,12.0,30.39,SSE,165,1.0,4.0,51,0.00,,,0.00,weatherlink.com 1.10,2013-01-19 06:17:00,
2013-01-19 01:33:00,27.9,12.0,30.38,SSE,167,2.0,4.0,52,0.00,,,0.00,weatherlink.com 1.10,2013-01-19 06:33:00,
2013-01-19 01:47:00,28.1,12.0,30.39,SSE,148,1.0,5.0,52,0.00,,,0.00,weatherlink.com 1.10,2013-01-19 06:47:00,
2013-01-19 02:02:00,28.2,13.0,30.38,SSW,194,2.0,4.0,53,0.00,,,0.00,weatherlink.com 1.10,2013-01-19 07:02:00,
2013-01-19 02:18:00,28.5,13.0,30.38,SSE,165,3.0,7.0,53,0.00,,,0.00,weatherlink.com 1.10,2013-01-19 07:18:00,
2013-01-19 02:33:00,28.5,14.0,30.37,South,191,1.0,5.0,54,0.00,,,0.00,weatherlink.com 1.10,2013-01-19 07:33:00,
2013-01-19 02:48:00,28.7,14.0,30.36,SSE,163,2.0,4.0,55,0.00,,,0.00,weatherlink.com 1.10,2013-01-19 07:48:00,
2013-01-19 03:03:00,28.9,15.0,30.36,SSE,158,2.0,7.0,56,0.00,,,0.00,weatherlink.com 1.10,2013-01-19 08:03:00,
2013-01-19 03:18:00,29.0,15.0,30.35,SSE,167,3.0,6.0,57,0.00,,,0.00,weatherlink.com 1.10,2013-01-19 08:18:00,
2013-01-19 03:33:00,29.2,16.0,30.34,SSW,198,4.0,9.0,57,0.00,,,0.00,weatherlink.com 1.10,2013-01-19 08:33:00,
2013-01-19 03:48:00,29.2,16.0,30.33,SSE,159,1.0,8.0,57,0.00,,,0.00,weatherlink.com 1.10,2013-01-19 08:48:00,
2013-01-19 04:03:00,29.4,16.0,30.33,SSE,154,4.0,5.0,58,0.00,,,0.00,weatherlink.com 1.10,2013-01-19 09:03:00,
2013-01-19 04:18:00,29.3,16.0,30.33,South,172,0.0,4.0,59,0.00,,,0.00,weatherlink.com 1.10,2013-01-19 09:18:00,
2013-01-19 04:33:00,29.1,17.0,30.32,SSE,163,3.0,7.0,60,0.00,,,0.00,weatherlink.com 1.10,2013-01-19 09:33:00,
2013-01-19 04:48:00,29.0,17.0,30.32,SSE,167,1.0,6.0,61,0.00,,,0.00,weatherlink.com 1.10,2013-01-19 09:48:00,
2013-01-19 05:03:00,29.2,18.0,30.31,South,176,1.0,7.0,62,0.00,,,0.00,weatherlink.com 1.10,2013-01-19 10:03:00,
2013-01-19 05:18:00,29.3,18.0,30.31,SSW,195,4.0,6.0,63,0.00,,,0.00,weatherlink.com 1.10,2013-01-19 10:18:00,
2013-01-19 05:33:00,29.3,18.0,30.31,SSW,205,3.0,5.0,64,0.00,,,0.00,weatherlink.com 1.10,2013-01-19 10:33:00,
2013-01-19 05:48:00,29.4,19.0,30.31,SSE,149,1.0,4.0,65,0.00,,,0.00,weatherlink.com 1.10,2013-01-19 10:48:00,
2013-01-19 06:03:00,29.6,19.0,30.31,SSE,158,1.0,4.0,66,0.00,,,0.00,weatherlink.com 1.10,2013-01-19 11:03:00,
2013-01-19 07:48:00,30.9,23.0,30.29,South,191,2.0,5.0,71,0.00,,,0.00,weatherlink.com 1.10,2013-01-19 12:48:00,
2013-01-19 08:03:00,31.2,23.0,30.28,SSE,158,1.0,6.0,71,0.00,,,0.00,weatherlink.com 1.10,2013-01-19 13:03:00,
2013-01-19 08:18:00,31.6,23.0,30.28,SSE,159,1.0,5.0,71,0.00,,,0.00,weatherlink.com 1.10,2013-01-19 13:18:00,
2013-01-19 08:33:00,32.3,24.0,30.29,South,190,6.0,6.0,71,0.00,,,0.00,weatherlink.com 1.10,2013-01-19 13:33:00,
2013-01-19 08:48:00,33.0,25.0,30.28,South,169,4.0,6.0,71,0.00,,,0.00,weatherlink.com 1.10,2013-01-19 13:48:00,
2013-01-19 09:03:00,33.9,25.0,30.28,SE,131,4.0,9.0,70,0.00,,,0.00,weatherlink.com 1.10,2013-01-19 14:03:00,
2013-01-19 09:19:00,34.9,26.0,30.28,SSE,147,2.0,8.0,69,0.00,,,0.00,weatherlink.com 1.10,2013-01-19 14:19:00,
2013-01-19 09:34:00,35.7,26.0,30.27,South,176,2.0,9.0,68,0.00,,,0.00,weatherlink.com 1.10,2013-01-19 14:34:00,
2013-01-19 09:49:00,36.6,26.0,30.27,South,181,5.0,10.0,66,0.00,,,0.00,weatherlink.com 1.10,2013-01-19 14:49:00,
2013-01-19 10:04:00,38.8,27.0,30.26,SSE,160,5.0,9.0,62,0.00,,,0.00,weatherlink.com 1.10,2013-01-19 15:04:00,
2013-01-19 10:19:00,39.9,27.0,30.26,South,181,1.0,9.0,60,0.00,,,0.00,weatherlink.com 1.10,2013-01-19 15:19:00,
2013-01-19 10:34:00,41.5,27.0,30.25,South,188,1.0,7.0,57,0.00,,,0.00,weatherlink.com 1.10,2013-01-19 15:34:00,
2013-01-19 10:49:00,42.6,27.0,30.23,SSE,162,2.0,9.0,55,0.00,,,0.00,weatherlink.com 1.10,2013-01-19 15:49:00,
2013-01-19 11:04:00,43.1,27.0,30.21,ENE,73,4.0,8.0,54,0.00,,,0.00,weatherlink.com 1.10,2013-01-19 16:04:00,
2013-01-19 11:19:00,44.4,28.0,30.20,South,188,1.0,7.0,53,0.00,,,0.00,weatherlink.com 1.10,2013-01-19 16:19:00,
2013-01-19 11:34:00,45.0,28.0,30.18,SSW,203,2.0,9.0,51,0.00,,,0.00,weatherlink.com 1.10,2013-01-19 16:34:00,
2013-01-19 11:49:00,46.1,28.0,30.17,SE,146,3.0,7.0,49,0.00,,,0.00,weatherlink.com 1.10,2013-01-19 16:49:00,
2013-01-19 12:04:00,46.9,28.0,30.16,SE,143,6.0,9.0,48,0.00,,,0.00,weatherlink.com 1.10,2013-01-19 17:04:00,
2013-01-19 12:19:00,47.0,28.0,30.14,SSE,151,4.0,7.0,47,0.00,,,0.00,weatherlink.com 1.10,2013-01-19 17:19:00,
2013-01-19 12:34:00,46.6,27.0,30.14,SE,146,2.0,10.0,47,0.00,,,0.00,weatherlink.com 1.10,2013-01-19 17:34:00,
2013-01-19 13:04:00,47.6,28.0,30.12,SSE,160,1.0,8.0,46,0.00,,,0.00,weatherlink.com 1.10,2013-01-19 18:04:00,
2013-01-19 13:19:00,47.8,27.0,30.11,South,183,7.0,9.0,45,0.00,,,0.00,weatherlink.com 1.10,2013-01-19 18:19:00,
2013-01-19 13:35:00,48.4,28.0,30.10,South,169,1.0,7.0,45,0.00,,,0.00,weatherlink.com 1.10,2013-01-19 18:35:00,
2013-01-19 13:50:00,48.9,27.0,30.09,South,187,5.0,7.0,43,0.00,,,0.00,weatherlink.com 1.10,2013-01-19 18:50:00,
2013-01-19 14:05:00,49.7,27.0,30.09,South,188,2.0,9.0,42,0.00,,,0.00,weatherlink.com 1.10,2013-01-19 19:05:00,
2013-01-19 14:35:00,50.9,27.0,30.07,South,188,3.0,9.0,40,0.00,,,0.00,weatherlink.com 1.10,2013-01-19 19:35:00,
2013-01-19 14:50:00,50.9,26.0,30.07,ESE,119,4.0,9.0,38,0.00,,,0.00,weatherlink.com 1.10,2013-01-19 19:50:00,
2013-01-19 15:20:00,50.9,27.0,30.07,SSE,166,3.0,8.0,39,0.00,,,0.00,weatherlink.com 1.10,2013-01-19 20:20:00,
2013-01-19 15:35:00,51.0,27.0,30.06,SW,225,6.0,6.0,39,0.00,,,0.00,weatherlink.com 1.10,2013-01-19 20:35:00,
2013-01-19 15:50:00,51.3,27.0,30.05,SSE,167,3.0,8.0,39,0.00,,,0.00,weatherlink.com 1.10,2013-01-19 20:50:00,
2013-01-19 16:05:00,51.2,27.0,30.05,South,172,4.0,8.0,39,0.00,,,0.00,weatherlink.com 1.10,2013-01-19 21:05:00,
2013-01-19 16:20:00,50.9,27.0,30.05,SSE,155,2.0,7.0,39,0.00,,,0.00,weatherlink.com 1.10,2013-01-19 21:20:00,
2013-01-19 16:35:00,50.4,27.0,30.04,SSE,168,2.0,6.0,40,0.00,,,0.00,weatherlink.com 1.10,2013-01-19 21:35:00,
2013-01-19 16:50:00,50.1,27.0,30.04,SSW,197,2.0,6.0,41,0.00,,,0.00,weatherlink.com 1.10,2013-01-19 21:50:00,
2013-01-19 17:05:00,49.8,27.0,30.04,South,173,1.0,5.0,41,0.00,,,0.00,weatherlink.com 1.10,2013-01-19 22:05:00,
2013-01-19 17:20:00,49.6,28.0,30.03,South,173,3.0,4.0,43,0.00,,,0.00,weatherlink.com 1.10,2013-01-19 22:20:00,
2013-01-19 17:35:00,49.3,28.0,30.04,SSE,158,3.0,4.0,44,0.00,,,0.00,weatherlink.com 1.10,2013-01-19 22:35:00,
2013-01-19 17:50:00,49.2,28.0,30.04,South,190,2.0,5.0,44,0.00,,,0.00,weatherlink.com 1.10,2013-01-19 22:50:00,
2013-01-19 18:20:00,48.7,29.0,30.03,South,170,2.0,6.0,46,0.00,,,0.00,weatherlink.com 1.10,2013-01-19 23:20:00,
2013-01-19 18:35:00,48.5,29.0,30.03,South,174,3.0,5.0,47,0.00,,,0.00,weatherlink.com 1.10,2013-01-19 23:35:00,
2013-01-19 19:05:00,47.9,29.0,30.03,South,186,3.0,7.0,48,0.00,,,0.00,weatherlink.com 1.10,2013-01-20 00:05:00,
2013-01-19 19:20:00,47.6,29.0,30.03,SSE,153,3.0,7.0,49,0.00,,,0.00,weatherlink.com 1.10,2013-01-20 00:20:00,
2013-01-19 19:35:00,47.4,29.0,30.02,South,181,3.0,7.0,49,0.00,,,0.00,weatherlink.com 1.10,2013-01-20 00:35:00,
2013-01-19 19:50:00,47.1,29.0,30.02,SSE,153,2.0,5.0,50,0.00,,,0.00,weatherlink.com 1.10,2013-01-20 00:50:00,
2013-01-19 20:05:00,46.7,29.0,30.01,SSE,156,2.0,5.0,51,0.00,,,0.00,weatherlink.com 1.10,2013-01-20 01:05:00,
2013-01-19 20:19:00,46.4,29.0,30.00,SSW,195,2.0,7.0,51,0.00,,,0.00,weatherlink.com 1.10,2013-01-20 01:19:00,
2013-01-19 20:35:00,45.8,29.0,30.00,SSE,155,2.0,5.0,53,0.00,,,0.00,weatherlink.com 1.10,2013-01-20 01:35:00,
2013-01-19 21:05:00,44.8,29.0,29.99,SSE,155,1.0,4.0,55,0.00,,,0.00,weatherlink.com 1.10,2013-01-20 02:05:00,
2013-01-19 21:20:00,44.5,29.0,29.99,South,174,0.0,5.0,55,0.00,,,0.00,weatherlink.com 1.10,2013-01-20 02:20:00,
2013-01-19 21:36:00,44.5,29.0,29.98,SSW,193,2.0,6.0,55,0.00,,,0.00,weatherlink.com 1.10,2013-01-20 02:36:00,
2013-01-19 21:51:00,44.5,29.0,29.98,South,184,0.0,7.0,55,0.00,,,0.00,weatherlink.com 1.10,2013-01-20 02:51:00,
2013-01-19 22:06:00,44.6,29.0,29.97,SSE,166,1.0,7.0,55,0.00,,,0.00,weatherlink.com 1.10,2013-01-20 03:06:00,
2013-01-19 22:21:00,44.5,29.0,29.96,SW,226,2.0,5.0,55,0.00,,,0.00,weatherlink.com 1.10,2013-01-20 03:21:00,
2013-01-19 22:36:00,44.4,29.0,29.95,South,174,1.0,9.0,55,0.00,,,0.00,weatherlink.com 1.10,2013-01-20 03:36:00,
2013-01-19 23:05:00,44.1,29.0,29.94,SSE,163,1.0,6.0,56,0.00,,,0.00,weatherlink.com 1.10,2013-01-20 04:05:00,
2013-01-19 23:20:00,43.9,29.0,29.93,SSW,194,1.0,6.0,57,0.00,,,0.00,weatherlink.com 1.10,2013-01-20 04:20:00,
2013-01-19 23:35:00,43.7,29.0,29.92,SSE,166,1.0,5.0,57,0.00,,,0.00,weatherlink.com 1.10,2013-01-20 04:35:00,
2013-01-19 23:50:00,43.6,30.0,29.91,SSW,193,3.0,6.0,58,0.00,,,0.00,weatherlink.com 1.10,2013-01-20 04:50:00,